createdAt,value
2019-02-11T00:01:34.269Z,98096.95
2019-02-11T00:06:35.836Z,98116.50
2019-02-11T00:11:37.398Z,98116.35
2019-02-11T00:16:38.950Z,98125.87
2019-02-11T00:21:40.504Z,98126.05
2019-02-11T00:26:42.061Z,98144.13
2019-02-11T00:31:43.655Z,98135.69
2019-02-11T00:36:45.224Z,98178.45
2019-02-11T00:41:46.767Z,98208.16
2019-02-11T00:46:48.304Z,98197.09
2019-02-11T00:51:49.849Z,98216.08
2019-02-11T00:56:51.389Z,98291.13
2019-02-11T01:01:52.940Z,98258.33
2019-02-11T01:06:54.487Z,98264.53
2019-02-11T01:11:56.040Z,98273.33
2019-02-11T01:16:57.589Z,98280.20
2019-02-11T01:21:59.220Z,98305.45
2019-02-11T01:27:00.774Z,98300.57
2019-02-11T01:32:02.348Z,98282.86
2019-02-11T01:37:03.887Z,98300.75
2019-02-11T01:42:05.433Z,98337.39
2019-02-11T01:47:06.993Z,98347.94
2019-02-11T01:52:08.661Z,98347.45
2019-02-11T01:57:10.209Z,98365.02
2019-02-11T02:02:11.754Z,98355.75
2019-02-11T02:07:13.418Z,98366.33
2019-02-11T02:12:15.068Z,98374.77
2019-02-11T02:17:16.616Z,98396.05
2019-02-11T02:22:18.156Z,98411.34
2019-02-11T02:27:19.812Z,98446.92
2019-02-11T02:32:21.359Z,98442.37
2019-02-11T02:37:22.908Z,98448.40
2019-02-11T02:42:24.497Z,98479.42
2019-02-11T02:47:26.175Z,98490.77
2019-02-11T02:52:27.716Z,98496.30
2019-02-11T02:57:29.263Z,98515.42
2019-02-11T03:02:30.812Z,98510.37
2019-02-11T03:07:32.351Z,98513.94
2019-02-11T03:12:33.895Z,98542.36
2019-02-11T03:17:35.469Z,98566.09
2019-02-11T03:22:37.033Z,98583.28
2019-02-11T03:27:38.601Z,98606.34
2019-02-11T03:32:40.271Z,98621.13
2019-02-11T03:37:41.804Z,98633.59
2019-02-11T03:42:43.356Z,98643.48
2019-02-11T03:47:44.916Z,98655.18
2019-02-11T03:52:46.563Z,98666.41
2019-02-11T03:57:48.110Z,98685.56
2019-02-11T04:02:49.664Z,98694.00
2019-02-11T04:07:51.201Z,98705.40
2019-02-11T04:12:52.758Z,98717.77
2019-02-11T04:17:54.471Z,98734.83
2019-02-11T04:22:56.046Z,98747.53
2019-02-11T04:27:57.605Z,98761.36
2019-02-11T04:32:59.196Z,98765.26
2019-02-11T04:38:01.018Z,98795.78
2019-02-11T04:43:02.586Z,98798.55
2019-02-11T04:48:04.145Z,98802.83
2019-02-11T04:53:05.780Z,98813.73
2019-02-11T04:58:07.532Z,98818.64
2019-02-11T05:03:09.105Z,98832.31
2019-02-11T05:08:10.702Z,98840.45
2019-02-11T05:13:12.258Z,98856.68
2019-02-11T05:18:13.810Z,98854.70
2019-02-11T05:23:15.415Z,98873.69
2019-02-11T05:28:17.021Z,98865.22
2019-02-11T05:33:18.675Z,98882.59
2019-02-11T05:38:20.485Z,98886.70
2019-02-11T05:43:22.204Z,98917.21
2019-02-11T05:48:23.788Z,98920.48
2019-02-11T05:53:25.374Z,98937.72
2019-02-11T05:58:26.945Z,98946.77
2019-02-11T06:03:28.540Z,98959.33
2019-02-11T06:08:30.130Z,98973.91
2019-02-11T06:13:31.735Z,98986.11
2019-02-11T06:18:33.293Z,98997.47
2019-02-11T06:23:34.863Z,99005.45
2019-02-11T06:28:36.447Z,99010.64
2019-02-11T06:33:38.013Z,99028.09
2019-02-11T06:38:39.593Z,99033.30
2019-02-11T06:43:41.154Z,99056.05
2019-02-11T06:48:42.713Z,99062.66
2019-02-11T06:53:44.290Z,99078.77
2019-02-11T06:58:45.837Z,99094.67
2019-02-11T07:03:47.384Z,99110.28
2019-02-11T07:08:49.077Z,99116.94
2019-02-11T07:13:50.664Z,99140.95
2019-02-11T07:18:52.220Z,99145.81
2019-02-11T07:23:53.797Z,99150.58
2019-02-11T07:28:55.360Z,99158.95
2019-02-11T07:33:56.949Z,99163.30
2019-02-11T07:38:58.507Z,99186.28
2019-02-11T07:44:09.598Z,99195.33
2019-02-11T07:49:11.630Z,99199.76
2019-02-11T07:54:13.202Z,99212.95
2019-02-11T07:59:14.813Z,99226.36
2019-02-11T08:04:16.631Z,99241.42
2019-02-11T08:09:18.498Z,99245.27
2019-02-11T08:14:20.297Z,99258.03
2019-02-11T08:19:21.917Z,99260.42
2019-02-11T08:24:23.791Z,99251.99
2019-02-11T08:29:25.610Z,99269.13
2019-02-11T08:34:27.304Z,99289.73
2019-02-11T08:39:29.159Z,99292.67
2019-02-11T08:44:31.066Z,99303.59
2019-02-11T08:49:32.608Z,99316.30
2019-02-11T08:54:34.203Z,99332.86
2019-02-11T08:59:35.768Z,99332.67
2019-02-11T09:04:37.332Z,99335.77
2019-02-11T09:09:38.919Z,99352.98
2019-02-11T09:14:40.523Z,99360.33
2019-02-11T09:19:42.104Z,99366.19
2019-02-11T09:24:43.782Z,99388.36
2019-02-11T09:29:45.386Z,99371.77
2019-02-11T09:34:46.959Z,99395.80
2019-02-11T09:39:48.536Z,99399.40
2019-02-11T09:44:50.113Z,99400.05
2019-02-11T09:50:31.318Z,99412.80
2019-02-11T09:55:33.061Z,99421.73
2019-02-11T10:00:34.758Z,99445.53
2019-02-11T10:05:36.557Z,99447.02
2019-02-11T10:10:38.159Z,99460.23
2019-02-11T10:15:39.745Z,99459.00
2019-02-11T10:20:41.328Z,99466.69
2019-02-11T10:25:43.013Z,99488.17
2019-02-11T10:30:44.617Z,99494.28
2019-02-11T10:35:46.421Z,99488.44
2019-02-11T10:40:48.092Z,99512.28
2019-02-11T10:45:49.805Z,99516.41
2019-02-11T10:50:51.375Z,99519.73
2019-02-11T10:55:52.936Z,99536.23
2019-02-11T11:00:54.850Z,99579.33
2019-02-11T11:05:56.731Z,99526.97
2019-02-11T11:10:58.453Z,99534.92
2019-02-11T11:16:00.247Z,99549.30
2019-02-11T11:21:01.916Z,99560.67
2019-02-11T11:26:03.516Z,99564.73
2019-02-11T11:31:05.354Z,99559.70
2019-02-11T11:36:07.090Z,99570.95
2019-02-11T11:41:08.767Z,99599.78
2019-02-11T11:46:10.463Z,99605.13
2019-02-11T11:51:12.196Z,99619.22
2019-02-11T11:56:13.928Z,99638.92
2019-02-11T12:01:19.608Z,99641.34
2019-02-11T12:06:25.200Z,99628.41
2019-02-11T12:11:25.942Z,99640.07
2019-02-11T12:16:27.729Z,99636.34
2019-02-11T12:21:30.286Z,99630.99
2019-02-11T12:26:32.794Z,99669.76
2019-02-11T12:31:34.571Z,99684.42
2019-02-11T12:36:36.337Z,99680.69
2019-02-11T12:41:38.044Z,99674.73
2019-02-11T12:46:39.617Z,99692.95
2019-02-11T12:51:41.202Z,99689.55
2019-02-11T12:56:42.775Z,99705.59
2019-02-11T13:01:44.469Z,99721.97
2019-02-11T13:06:46.036Z,99726.16
2019-02-11T13:11:47.678Z,99743.25
2019-02-11T13:16:49.365Z,99755.27
2019-02-11T13:21:50.980Z,99757.02
2019-02-11T13:26:52.636Z,99764.16
2019-02-11T13:31:54.260Z,99780.33
2019-02-11T13:36:55.833Z,99769.74
2019-02-11T13:41:57.558Z,99786.50
2019-02-11T13:46:59.160Z,99794.48
2019-02-11T13:52:00.738Z,99808.70
2019-02-11T13:57:02.443Z,99824.62
2019-02-11T14:02:04.133Z,99824.82
2019-02-11T14:07:05.837Z,99830.27
2019-02-11T14:12:07.495Z,99838.34
2019-02-11T14:17:09.218Z,99854.49
2019-02-11T14:22:10.810Z,99890.70
2019-02-11T14:27:12.498Z,99899.43
2019-02-11T14:32:14.193Z,99909.87
2019-02-11T14:37:15.836Z,99904.11
2019-02-11T14:42:17.421Z,99887.90
2019-02-11T14:47:21.009Z,99909.77
2019-02-11T14:52:22.605Z,99916.42
2019-02-11T14:57:24.287Z,99923.73
2019-02-11T15:02:26.001Z,99938.98
2019-02-11T15:07:27.700Z,99943.44
2019-02-11T15:12:29.273Z,99959.85
2019-02-11T15:17:30.822Z,99964.37
2019-02-11T15:22:32.417Z,99966.75
2019-02-11T15:27:33.984Z,100020.28
2019-02-11T15:32:35.655Z,100051.11
2019-02-11T15:37:37.387Z,100095.18
2019-02-11T15:42:39.148Z,100068.18
2019-02-11T15:47:40.973Z,100069.02
2019-02-11T15:52:42.795Z,100088.77
2019-02-11T15:57:44.507Z,100103.47
2019-02-11T16:02:46.333Z,100110.92
2019-02-11T16:07:48.238Z,100117.44
2019-02-11T16:12:49.982Z,100128.95
2019-02-11T16:17:51.826Z,100137.02
2019-02-11T16:22:55.899Z,100162.57
2019-02-11T16:27:58.168Z,100167.30
2019-02-11T16:33:01.487Z,100170.85
2019-02-11T16:38:03.538Z,100191.91
2019-02-11T16:43:05.305Z,100195.35
2019-02-11T16:48:06.989Z,100211.33
2019-02-11T16:53:08.664Z,100221.84
2019-02-11T16:58:10.368Z,100228.60
2019-02-11T17:03:11.912Z,100237.35
2019-02-11T17:08:13.631Z,100263.73
2019-02-11T17:13:15.198Z,100263.61
2019-02-11T17:18:16.928Z,100267.52
2019-02-11T17:23:18.615Z,100321.94
2019-02-11T17:28:20.277Z,100301.93
2019-02-11T17:33:21.846Z,100320.28
2019-02-11T17:38:23.424Z,100319.33
2019-02-11T17:43:25.033Z,100332.66
2019-02-11T17:48:26.922Z,100340.46
2019-02-11T17:53:28.475Z,100351.59
2019-02-11T17:58:30.046Z,100372.31
2019-02-11T18:03:31.671Z,100382.36
2019-02-11T18:08:33.240Z,100409.80
2019-02-11T18:13:34.854Z,100425.91
2019-02-11T18:18:36.534Z,100422.61
2019-02-11T18:23:38.253Z,100439.88
2019-02-11T18:28:39.812Z,100450.30
2019-02-11T18:33:41.472Z,100464.72
2019-02-11T18:38:43.322Z,100476.98
2019-02-11T18:43:44.901Z,100486.76
2019-02-11T18:48:49.724Z,100507.85
2019-02-11T18:53:51.527Z,100514.45
2019-02-11T18:58:53.137Z,100515.27
2019-02-11T19:03:56.840Z,100539.31
2019-02-11T19:08:59.943Z,100546.84
2019-02-11T19:14:01.803Z,100584.89
2019-02-11T19:19:05.324Z,100583.52
2019-02-11T19:24:07.030Z,100579.58
2019-02-11T19:29:09.392Z,100596.11
2019-02-11T19:34:10.980Z,100610.53
2019-02-11T19:39:12.874Z,100632.72
2019-02-11T19:44:14.654Z,100635.64
2019-02-11T19:49:16.274Z,100643.52
2019-02-11T19:54:18.038Z,100650.41
2019-02-11T19:59:19.690Z,100654.88
2019-02-11T20:04:21.281Z,100667.51
2019-02-11T20:09:22.859Z,100673.02
2019-02-11T20:14:24.566Z,100673.70
2019-02-11T20:19:26.281Z,100683.44
2019-02-11T20:24:27.979Z,100706.95
2019-02-11T20:29:29.652Z,100698.97
2019-02-11T20:34:31.251Z,100711.84
2019-02-11T20:39:32.923Z,100704.80
2019-02-11T20:44:34.539Z,100722.47
2019-02-11T20:49:36.148Z,100724.04
2019-02-11T20:54:37.744Z,100735.95
2019-02-11T20:59:39.428Z,100747.45
2019-02-11T21:04:40.998Z,100762.19
2019-02-11T21:09:42.589Z,100771.40
2019-02-11T21:14:44.190Z,100772.33
2019-02-11T21:19:45.779Z,100768.61
2019-02-11T21:24:47.348Z,100778.27
2019-02-11T21:29:48.937Z,100778.82
2019-02-11T21:34:50.500Z,100783.86
2019-02-11T21:39:52.170Z,100785.16
2019-02-11T21:44:53.761Z,100797.84
2019-02-11T21:49:55.349Z,100798.06
2019-02-11T21:54:56.916Z,100792.94
2019-02-11T21:59:58.612Z,100805.11
2019-02-11T22:05:00.283Z,100805.66
2019-02-11T22:10:01.942Z,100806.66
2019-02-11T22:15:04.063Z,100821.31
2019-02-11T22:20:07.560Z,100819.09
2019-02-11T22:25:09.731Z,100816.41
2019-02-11T22:30:16.362Z,100819.93
2019-02-11T22:35:18.061Z,100822.70
2019-02-11T22:40:19.658Z,100828.65
2019-02-11T22:45:21.700Z,100822.92
2019-02-11T22:50:23.361Z,100827.37
2019-02-11T22:55:24.933Z,100829.59
2019-02-11T23:00:53.198Z,100833.86
2019-02-11T23:05:54.785Z,100847.46
2019-02-11T23:10:56.455Z,100858.52
2019-02-11T23:15:58.043Z,100866.58
2019-02-11T23:20:59.726Z,100880.68
2019-02-11T23:26:01.313Z,100899.34
2019-02-11T23:31:02.893Z,100906.19
2019-02-11T23:36:04.566Z,100915.85
2019-02-11T23:41:06.130Z,100919.09
2019-02-11T23:46:07.718Z,100918.53
2019-02-11T23:51:09.295Z,100928.08
2019-02-11T23:56:10.853Z,100939.41
